sensor_id;sensor_type;location;lat;lon;timestamp;P1;durP1;ratioP1;P2;durP2;ratioP2
17347;SDS011;8791;50.876;4.342;2023-03-01T00:00:39;8.87;;;6.40;;
17347;SDS011;8791;50.876;4.342;2023-03-01T00:03:07;8.27;;;6.63;;
17347;SDS011;8791;50.876;4.342;2023-03-01T00:05:34;8.17;;;6.37;;
17347;SDS011;8791;50.876;4.342;2023-03-01T00:08:01;13.87;;;6.53;;
17347;SDS011;8791;50.876;4.342;2023-03-01T00:10:28;12.57;;;6.83;;
17347;SDS011;8791;50.876;4.342;2023-03-01T00:12:55;10.57;;;7.03;;
17347;SDS011;8791;50.876;4.342;2023-03-01T00:15:21;13.07;;;7.10;;
17347;SDS011;8791;50.876;4.342;2023-03-01T00:17:48;10.97;;;6.93;;
17347;SDS011;8791;50.876;4.342;2023-03-01T00:20:16;12.57;;;6.53;;
17347;SDS011;8791;50.876;4.342;2023-03-01T00:22:43;10.20;;;7.20;;
17347;SDS011;8791;50.876;4.342;2023-03-01T00:25:10;12.23;;;6.93;;
17347;SDS011;8791;50.876;4.342;2023-03-01T00:27:37;9.87;;;7.23;;
17347;SDS011;8791;50.876;4.342;2023-03-01T00:30:04;11.33;;;6.57;;
17347;SDS011;8791;50.876;4.342;2023-03-01T00:32:32;8.63;;;6.60;;
17347;SDS011;8791;50.876;4.342;2023-03-01T00:34:59;10.77;;;6.90;;
17347;SDS011;8791;50.876;4.342;2023-03-01T00:37:27;11.47;;;6.70;;
17347;SDS011;8791;50.876;4.342;2023-03-01T00:39:54;10.93;;;6.93;;
17347;SDS011;8791;50.876;4.342;2023-03-01T00:42:20;8.17;;;6.90;;
17347;SDS011;8791;50.876;4.342;2023-03-01T00:44:48;7.07;;;5.97;;
17347;SDS011;8791;50.876;4.342;2023-03-01T00:47:15;10.07;;;6.67;;
17347;SDS011;8791;50.876;4.342;2023-03-01T00:49:41;10.77;;;7.10;;
17347;SDS011;8791;50.876;4.342;2023-03-01T00:52:08;8.43;;;6.30;;
17347;SDS011;8791;50.876;4.342;2023-03-01T00:54:36;10.57;;;6.50;;
17347;SDS011;8791;50.876;4.342;2023-03-01T00:57:03;9.37;;;6.80;;
17347;SDS011;8791;50.876;4.342;2023-03-01T00:59:30;9.93;;;6.50;;
17347;SDS011;8791;50.876;4.342;2023-03-01T01:01:57;12.67;;;6.83;;
17347;SDS011;8791;50.876;4.342;2023-03-01T01:04:24;9.00;;;6.80;;
17347;SDS011;8791;50.876;4.342;2023-03-01T01:06:51;17.17;;;7.30;;
17347;SDS011;8791;50.876;4.342;2023-03-01T01:09:18;10.83;;;7.43;;
17347;SDS011;8791;50.876;4.342;2023-03-01T01:11:46;13.07;;;7.43;;
17347;SDS011;8791;50.876;4.342;2023-03-01T01:14:14;9.73;;;6.80;;
17347;SDS011;8791;50.876;4.342;2023-03-01T01:16:42;9.33;;;7.27;;
17347;SDS011;8791;50.876;4.342;2023-03-01T01:19:09;9.80;;;6.83;;
17347;SDS011;8791;50.876;4.342;2023-03-01T01:21:37;8.90;;;6.70;;
17347;SDS011;8791;50.876;4.342;2023-03-01T01:24:04;8.40;;;7.50;;
17347;SDS011;8791;50.876;4.342;2023-03-01T01:26:32;13.00;;;7.07;;
17347;SDS011;8791;50.876;4.342;2023-03-01T01:29:01;8.20;;;6.57;;
17347;SDS011;8791;50.876;4.342;2023-03-01T01:31:30;11.93;;;7.40;;
17347;SDS011;8791;50.876;4.342;2023-03-01T01:33:58;12.20;;;7.20;;
17347;SDS011;8791;50.876;4.342;2023-03-01T01:36:25;11.80;;;7.27;;
17347;SDS011;8791;50.876;4.342;2023-03-01T01:38:53;8.00;;;7.20;;
17347;SDS011;8791;50.876;4.342;2023-03-01T01:41:20;9.77;;;6.53;;
17347;SDS011;8791;50.876;4.342;2023-03-01T01:43:48;8.93;;;6.60;;
17347;SDS011;8791;50.876;4.342;2023-03-01T01:46:37;9.87;;;6.73;;
17347;SDS011;8791;50.876;4.342;2023-03-01T01:49:07;9.17;;;7.10;;
17347;SDS011;8791;50.876;4.342;2023-03-01T01:51:44;8.17;;;6.00;;
17347;SDS011;8791;50.876;4.342;2023-03-01T01:54:14;10.17;;;6.47;;
17347;SDS011;8791;50.876;4.342;2023-03-01T01:56:46;9.70;;;6.90;;
17347;SDS011;8791;50.876;4.342;2023-03-01T01:59:17;7.97;;;6.93;;
17347;SDS011;8791;50.876;4.342;2023-03-01T02:01:45;7.97;;;6.43;;
17347;SDS011;8791;50.876;4.342;2023-03-01T02:04:12;9.17;;;6.57;;
17347;SDS011;8791;50.876;4.342;2023-03-01T02:06:41;7.10;;;6.40;;
17347;SDS011;8791;50.876;4.342;2023-03-01T02:09:13;9.87;;;7.23;;
17347;SDS011;8791;50.876;4.342;2023-03-01T02:11:41;11.10;;;6.90;;
17347;SDS011;8791;50.876;4.342;2023-03-01T02:14:10;9.37;;;6.47;;
17347;SDS011;8791;50.876;4.342;2023-03-01T02:16:37;8.20;;;6.80;;
17347;SDS011;8791;50.876;4.342;2023-03-01T02:19:05;9.70;;;6.67;;
17347;SDS011;8791;50.876;4.342;2023-03-01T02:21:37;9.47;;;7.00;;
17347;SDS011;8791;50.876;4.342;2023-03-01T02:24:10;7.90;;;6.30;;
17347;SDS011;8791;50.876;4.342;2023-03-01T02:26:49;14.40;;;6.50;;
17347;SDS011;8791;50.876;4.342;2023-03-01T02:29:19;7.87;;;6.40;;
17347;SDS011;8791;50.876;4.342;2023-03-01T02:31:47;8.97;;;7.20;;
17347;SDS011;8791;50.876;4.342;2023-03-01T02:34:15;8.27;;;6.67;;
17347;SDS011;8791;50.876;4.342;2023-03-01T02:36:47;9.03;;;6.77;;
17347;SDS011;8791;50.876;4.342;2023-03-01T02:39:16;12.37;;;7.07;;
17347;SDS011;8791;50.876;4.342;2023-03-01T02:41:48;7.40;;;6.57;;
17347;SDS011;8791;50.876;4.342;2023-03-01T02:44:19;9.87;;;7.20;;
17347;SDS011;8791;50.876;4.342;2023-03-01T02:46:48;9.80;;;6.90;;
17347;SDS011;8791;50.876;4.342;2023-03-01T02:49:20;10.63;;;7.07;;
17347;SDS011;8791;50.876;4.342;2023-03-01T02:54:44;9.70;;;7.13;;
17347;SDS011;8791;50.876;4.342;2023-03-01T02:57:16;9.13;;;6.93;;
17347;SDS011;8791;50.876;4.342;2023-03-01T02:59:45;10.27;;;6.87;;
17347;SDS011;8791;50.876;4.342;2023-03-01T03:02:18;10.90;;;6.80;;
17347;SDS011;8791;50.876;4.342;2023-03-01T03:05:01;8.33;;;6.67;;
17347;SDS011;8791;50.876;4.342;2023-03-01T03:07:31;8.77;;;6.57;;
17347;SDS011;8791;50.876;4.342;2023-03-01T03:09:58;16.07;;;7.53;;
17347;SDS011;8791;50.876;4.342;2023-03-01T03:12:25;12.20;;;7.37;;
17347;SDS011;8791;50.876;4.342;2023-03-01T03:14:53;13.63;;;7.83;;
17347;SDS011;8791;50.876;4.342;2023-03-01T03:17:20;8.47;;;7.30;;
17347;SDS011;8791;50.876;4.342;2023-03-01T03:19:47;10.57;;;7.73;;
17347;SDS011;8791;50.876;4.342;2023-03-01T03:22:13;10.63;;;7.17;;
17347;SDS011;8791;50.876;4.342;2023-03-01T03:24:40;8.27;;;7.40;;
17347;SDS011;8791;50.876;4.342;2023-03-01T03:27:07;9.90;;;7.40;;
17347;SDS011;8791;50.876;4.342;2023-03-01T03:29:34;8.87;;;7.03;;
17347;SDS011;8791;50.876;4.342;2023-03-01T03:32:02;13.33;;;7.70;;
17347;SDS011;8791;50.876;4.342;2023-03-01T03:34:30;12.07;;;7.90;;
17347;SDS011;8791;50.876;4.342;2023-03-01T03:36:56;8.53;;;7.63;;
17347;SDS011;8791;50.876;4.342;2023-03-01T03:39:24;8.87;;;7.57;;
17347;SDS011;8791;50.876;4.342;2023-03-01T03:41:52;10.90;;;7.43;;
17347;SDS011;8791;50.876;4.342;2023-03-01T03:44:19;9.73;;;8.07;;
17347;SDS011;8791;50.876;4.342;2023-03-01T03:46:46;11.37;;;8.13;;
17347;SDS011;8791;50.876;4.342;2023-03-01T03:49:15;10.43;;;7.90;;
17347;SDS011;8791;50.876;4.342;2023-03-01T03:51:41;13.73;;;7.70;;
17347;SDS011;8791;50.876;4.342;2023-03-01T03:54:11;12.27;;;7.37;;
17347;SDS011;8791;50.876;4.342;2023-03-01T03:56:37;12.00;;;7.53;;
17347;SDS011;8791;50.876;4.342;2023-03-01T03:59:04;10.80;;;7.23;;
17347;SDS011;8791;50.876;4.342;2023-03-01T04:01:31;10.80;;;7.83;;
17347;SDS011;8791;50.876;4.342;2023-03-01T04:03:58;16.23;;;7.70;;
17347;SDS011;8791;50.876;4.342;2023-03-01T04:06:30;11.67;;;8.27;;
17347;SDS011;8791;50.876;4.342;2023-03-01T04:08:57;15.97;;;8.37;;
17347;SDS011;8791;50.876;4.342;2023-03-01T04:11:25;12.03;;;8.37;;
17347;SDS011;8791;50.876;4.342;2023-03-01T04:13:53;10.63;;;7.40;;
17347;SDS011;8791;50.876;4.342;2023-03-01T04:16:21;13.77;;;7.97;;
17347;SDS011;8791;50.876;4.342;2023-03-01T04:18:49;9.20;;;7.80;;
17347;SDS011;8791;50.876;4.342;2023-03-01T04:21:17;14.17;;;8.43;;
17347;SDS011;8791;50.876;4.342;2023-03-01T04:23:46;10.10;;;7.73;;
17347;SDS011;8791;50.876;4.342;2023-03-01T04:26:17;14.80;;;8.40;;
17347;SDS011;8791;50.876;4.342;2023-03-01T04:28:44;11.93;;;7.50;;
17347;SDS011;8791;50.876;4.342;2023-03-01T04:31:13;14.87;;;7.80;;
17347;SDS011;8791;50.876;4.342;2023-03-01T04:33:44;11.13;;;7.13;;
17347;SDS011;8791;50.876;4.342;2023-03-01T04:36:12;11.57;;;8.00;;
17347;SDS011;8791;50.876;4.342;2023-03-01T04:38:40;11.90;;;8.13;;
17347;SDS011;8791;50.876;4.342;2023-03-01T04:41:09;11.87;;;7.50;;
17347;SDS011;8791;50.876;4.342;2023-03-01T04:43:36;9.03;;;8.13;;
17347;SDS011;8791;50.876;4.342;2023-03-01T04:46:04;9.77;;;7.70;;
17347;SDS011;8791;50.876;4.342;2023-03-01T04:48:34;14.73;;;7.73;;
17347;SDS011;8791;50.876;4.342;2023-03-01T04:51:02;12.37;;;7.40;;
17347;SDS011;8791;50.876;4.342;2023-03-01T04:53:29;12.13;;;7.83;;
17347;SDS011;8791;50.876;4.342;2023-03-01T04:55:57;9.30;;;7.63;;
17347;SDS011;8791;50.876;4.342;2023-03-01T04:58:26;10.13;;;7.27;;
17347;SDS011;8791;50.876;4.342;2023-03-01T05:00:53;10.07;;;6.77;;
17347;SDS011;8791;50.876;4.342;2023-03-01T05:03:21;10.10;;;7.10;;
17347;SDS011;8791;50.876;4.342;2023-03-01T05:05:48;12.07;;;7.27;;
17347;SDS011;8791;50.876;4.342;2023-03-01T05:08:17;8.33;;;7.63;;
17347;SDS011;8791;50.876;4.342;2023-03-01T05:10:46;9.27;;;7.37;;
17347;SDS011;8791;50.876;4.342;2023-03-01T05:13:15;13.57;;;8.10;;
17347;SDS011;8791;50.876;4.342;2023-03-01T05:15:48;15.17;;;8.03;;
17347;SDS011;8791;50.876;4.342;2023-03-01T05:20:48;14.57;;;7.77;;
17347;SDS011;8791;50.876;4.342;2023-03-01T05:23:15;10.77;;;7.47;;
17347;SDS011;8791;50.876;4.342;2023-03-01T05:25:42;11.73;;;7.97;;
17347;SDS011;8791;50.876;4.342;2023-03-01T05:28:09;13.37;;;7.90;;
17347;SDS011;8791;50.876;4.342;2023-03-01T05:30:38;15.13;;;8.03;;
17347;SDS011;8791;50.876;4.342;2023-03-01T05:33:06;10.93;;;7.70;;
17347;SDS011;8791;50.876;4.342;2023-03-01T05:35:38;15.50;;;8.50;;
17347;SDS011;8791;50.876;4.342;2023-03-01T05:38:05;11.33;;;7.60;;
17347;SDS011;8791;50.876;4.342;2023-03-01T05:40:32;10.80;;;8.10;;
17347;SDS011;8791;50.876;4.342;2023-03-01T05:43:00;13.83;;;7.87;;
17347;SDS011;8791;50.876;4.342;2023-03-01T05:45:30;12.07;;;8.30;;
17347;SDS011;8791;50.876;4.342;2023-03-01T05:47:58;16.03;;;8.17;;
17347;SDS011;8791;50.876;4.342;2023-03-01T05:50:28;9.73;;;7.63;;
17347;SDS011;8791;50.876;4.342;2023-03-01T05:52:57;15.33;;;8.50;;
17347;SDS011;8791;50.876;4.342;2023-03-01T05:55:25;12.60;;;7.93;;
17347;SDS011;8791;50.876;4.342;2023-03-01T05:57:53;18.23;;;8.17;;
17347;SDS011;8791;50.876;4.342;2023-03-01T06:00:20;13.47;;;8.47;;
17347;SDS011;8791;50.876;4.342;2023-03-01T06:02:48;16.17;;;8.13;;
17347;SDS011;8791;50.876;4.342;2023-03-01T06:05:15;15.80;;;8.27;;
17347;SDS011;8791;50.876;4.342;2023-03-01T06:07:43;11.80;;;8.60;;
17347;SDS011;8791;50.876;4.342;2023-03-01T06:10:11;15.57;;;9.30;;
17347;SDS011;8791;50.876;4.342;2023-03-01T06:12:39;14.73;;;7.90;;
17347;SDS011;8791;50.876;4.342;2023-03-01T06:15:07;15.17;;;8.57;;
17347;SDS011;8791;50.876;4.342;2023-03-01T06:17:36;12.93;;;7.90;;
17347;SDS011;8791;50.876;4.342;2023-03-01T06:20:04;15.43;;;8.20;;
17347;SDS011;8791;50.876;4.342;2023-03-01T06:22:32;10.70;;;7.90;;
17347;SDS011;8791;50.876;4.342;2023-03-01T06:25:01;19.17;;;8.03;;
17347;SDS011;8791;50.876;4.342;2023-03-01T06:27:28;14.33;;;8.00;;
17347;SDS011;8791;50.876;4.342;2023-03-01T06:29:55;13.83;;;7.87;;
17347;SDS011;8791;50.876;4.342;2023-03-01T06:32:21;17.63;;;9.30;;
17347;SDS011;8791;50.876;4.342;2023-03-01T06:34:49;12.67;;;8.97;;
17347;SDS011;8791;50.876;4.342;2023-03-01T06:37:16;35.80;;;8.13;;
17347;SDS011;8791;50.876;4.342;2023-03-01T06:39:43;23.87;;;7.53;;
17347;SDS011;8791;50.876;4.342;2023-03-01T06:42:11;12.13;;;7.67;;
17347;SDS011;8791;50.876;4.342;2023-03-01T06:44:38;20.10;;;8.13;;
17347;SDS011;8791;50.876;4.342;2023-03-01T06:47:05;11.80;;;8.20;;
17347;SDS011;8791;50.876;4.342;2023-03-01T06:49:31;15.07;;;8.30;;
17347;SDS011;8791;50.876;4.342;2023-03-01T06:51:58;8.67;;;7.40;;
17347;SDS011;8791;50.876;4.342;2023-03-01T06:54:25;9.87;;;8.17;;
17347;SDS011;8791;50.876;4.342;2023-03-01T06:56:52;11.20;;;8.13;;
17347;SDS011;8791;50.876;4.342;2023-03-01T06:59:20;20.40;;;8.30;;
17347;SDS011;8791;50.876;4.342;2023-03-01T07:01:47;12.53;;;8.03;;
17347;SDS011;8791;50.876;4.342;2023-03-01T07:04:13;12.57;;;8.07;;
17347;SDS011;8791;50.876;4.342;2023-03-01T07:06:40;12.30;;;8.27;;
17347;SDS011;8791;50.876;4.342;2023-03-01T07:09:07;13.97;;;8.30;;
17347;SDS011;8791;50.876;4.342;2023-03-01T07:11:34;14.00;;;8.30;;
17347;SDS011;8791;50.876;4.342;2023-03-01T07:14:01;13.33;;;8.70;;
17347;SDS011;8791;50.876;4.342;2023-03-01T07:16:29;11.60;;;7.87;;
17347;SDS011;8791;50.876;4.342;2023-03-01T07:18:56;18.73;;;8.47;;
17347;SDS011;8791;50.876;4.342;2023-03-01T07:21:23;11.57;;;8.23;;
17347;SDS011;8791;50.876;4.342;2023-03-01T07:23:49;10.83;;;8.30;;
17347;SDS011;8791;50.876;4.342;2023-03-01T07:26:16;14.07;;;8.03;;
17347;SDS011;8791;50.876;4.342;2023-03-01T07:28:43;10.97;;;8.07;;
17347;SDS011;8791;50.876;4.342;2023-03-01T07:31:10;13.07;;;7.87;;
17347;SDS011;8791;50.876;4.342;2023-03-01T07:33:38;12.73;;;8.17;;
17347;SDS011;8791;50.876;4.342;2023-03-01T07:36:05;8.97;;;7.70;;
17347;SDS011;8791;50.876;4.342;2023-03-01T07:38:32;15.00;;;8.33;;
17347;SDS011;8791;50.876;4.342;2023-03-01T07:41:00;11.13;;;8.33;;
17347;SDS011;8791;50.876;4.342;2023-03-01T07:43:29;12.27;;;8.47;;
17347;SDS011;8791;50.876;4.342;2023-03-01T07:45:57;12.97;;;9.30;;
17347;SDS011;8791;50.876;4.342;2023-03-01T07:48:25;10.20;;;8.47;;
17347;SDS011;8791;50.876;4.342;2023-03-01T07:50:53;13.70;;;8.90;;
17347;SDS011;8791;50.876;4.342;2023-03-01T07:53:20;15.83;;;8.40;;
17347;SDS011;8791;50.876;4.342;2023-03-01T07:55:46;12.50;;;8.20;;
17347;SDS011;8791;50.876;4.342;2023-03-01T07:58:13;16.27;;;8.63;;
17347;SDS011;8791;50.876;4.342;2023-03-01T08:00:40;15.47;;;8.40;;
17347;SDS011;8791;50.876;4.342;2023-03-01T08:03:07;14.27;;;8.63;;
17347;SDS011;8791;50.876;4.342;2023-03-01T08:05:33;14.67;;;8.93;;
17347;SDS011;8791;50.876;4.342;2023-03-01T08:08:01;13.30;;;8.53;;
17347;SDS011;8791;50.876;4.342;2023-03-01T08:10:30;11.03;;;8.17;;
17347;SDS011;8791;50.876;4.342;2023-03-01T08:12:56;11.27;;;8.60;;
17347;SDS011;8791;50.876;4.342;2023-03-01T08:15:23;16.30;;;8.60;;
17347;SDS011;8791;50.876;4.342;2023-03-01T08:17:50;16.03;;;9.43;;
17347;SDS011;8791;50.876;4.342;2023-03-01T08:20:17;12.60;;;8.77;;
17347;SDS011;8791;50.876;4.342;2023-03-01T08:22:44;20.13;;;9.43;;
17347;SDS011;8791;50.876;4.342;2023-03-01T08:25:12;19.70;;;9.60;;
17347;SDS011;8791;50.876;4.342;2023-03-01T08:27:39;13.13;;;8.53;;
17347;SDS011;8791;50.876;4.342;2023-03-01T08:30:06;19.70;;;9.03;;
17347;SDS011;8791;50.876;4.342;2023-03-01T08:32:37;29.93;;;14.07;;
17347;SDS011;8791;50.876;4.342;2023-03-01T08:35:05;16.77;;;9.20;;
17347;SDS011;8791;50.876;4.342;2023-03-01T08:37:32;13.97;;;9.33;;
17347;SDS011;8791;50.876;4.342;2023-03-01T08:39:59;15.00;;;9.20;;
17347;SDS011;8791;50.876;4.342;2023-03-01T08:42:27;17.70;;;8.60;;
17347;SDS011;8791;50.876;4.342;2023-03-01T08:44:54;14.80;;;8.80;;
17347;SDS011;8791;50.876;4.342;2023-03-01T08:47:21;14.33;;;9.27;;
17347;SDS011;8791;50.876;4.342;2023-03-01T08:49:48;15.30;;;9.00;;
17347;SDS011;8791;50.876;4.342;2023-03-01T08:52:15;15.93;;;8.83;;
17347;SDS011;8791;50.876;4.342;2023-03-01T08:54:42;14.20;;;8.20;;
17347;SDS011;8791;50.876;4.342;2023-03-01T08:57:09;17.87;;;9.47;;
17347;SDS011;8791;50.876;4.342;2023-03-01T08:59:39;15.07;;;9.17;;
17347;SDS011;8791;50.876;4.342;2023-03-01T09:02:06;12.10;;;8.37;;
17347;SDS011;8791;50.876;4.342;2023-03-01T09:04:37;19.07;;;9.10;;
17347;SDS011;8791;50.876;4.342;2023-03-01T09:07:04;18.00;;;9.33;;
17347;SDS011;8791;50.876;4.342;2023-03-01T09:09:31;13.87;;;8.50;;
17347;SDS011;8791;50.876;4.342;2023-03-01T09:11:58;19.73;;;9.80;;
17347;SDS011;8791;50.876;4.342;2023-03-01T09:14:25;13.87;;;9.90;;
17347;SDS011;8791;50.876;4.342;2023-03-01T09:16:53;13.70;;;9.00;;
17347;SDS011;8791;50.876;4.342;2023-03-01T09:19:20;16.47;;;9.43;;
17347;SDS011;8791;50.876;4.342;2023-03-01T09:21:47;12.53;;;8.67;;
17347;SDS011;8791;50.876;4.342;2023-03-01T09:24:18;17.87;;;9.13;;
17347;SDS011;8791;50.876;4.342;2023-03-01T09:26:46;12.70;;;9.00;;
17347;SDS011;8791;50.876;4.342;2023-03-01T09:29:14;15.13;;;9.17;;
17347;SDS011;8791;50.876;4.342;2023-03-01T09:31:41;10.13;;;8.20;;
17347;SDS011;8791;50.876;4.342;2023-03-01T09:34:10;14.83;;;9.37;;
17347;SDS011;8791;50.876;4.342;2023-03-01T09:36:36;13.17;;;8.90;;
17347;SDS011;8791;50.876;4.342;2023-03-01T09:39:03;15.57;;;8.93;;
17347;SDS011;8791;50.876;4.342;2023-03-01T09:41:35;13.37;;;9.70;;
17347;SDS011;8791;50.876;4.342;2023-03-01T09:44:10;14.53;;;9.23;;
17347;SDS011;8791;50.876;4.342;2023-03-01T09:46:49;12.47;;;9.30;;
17347;SDS011;8791;50.876;4.342;2023-03-01T09:49:19;12.67;;;9.60;;
17347;SDS011;8791;50.876;4.342;2023-03-01T09:51:54;14.87;;;9.17;;
17347;SDS011;8791;50.876;4.342;2023-03-01T09:54:23;16.47;;;9.63;;
17347;SDS011;8791;50.876;4.342;2023-03-01T09:56:57;18.43;;;10.37;;
17347;SDS011;8791;50.876;4.342;2023-03-01T09:59:30;22.57;;;9.57;;
17347;SDS011;8791;50.876;4.342;2023-03-01T10:02:14;15.80;;;9.77;;
17347;SDS011;8791;50.876;4.342;2023-03-01T10:04:54;19.43;;;9.20;;
17347;SDS011;8791;50.876;4.342;2023-03-01T10:07:27;13.63;;;9.30;;
17347;SDS011;8791;50.876;4.342;2023-03-01T10:10:04;14.47;;;9.30;;
17347;SDS011;8791;50.876;4.342;2023-03-01T10:12:33;11.40;;;9.00;;
17347;SDS011;8791;50.876;4.342;2023-03-01T10:15:04;12.20;;;9.23;;
17347;SDS011;8791;50.876;4.342;2023-03-01T10:17:35;21.00;;;9.37;;
17347;SDS011;8791;50.876;4.342;2023-03-01T10:20:17;15.33;;;9.50;;
17347;SDS011;8791;50.876;4.342;2023-03-01T10:22:46;14.73;;;9.17;;
17347;SDS011;8791;50.876;4.342;2023-03-01T10:25:17;13.23;;;8.80;;
17347;SDS011;8791;50.876;4.342;2023-03-01T10:27:51;16.53;;;9.33;;
17347;SDS011;8791;50.876;4.342;2023-03-01T10:30:20;12.60;;;8.70;;
17347;SDS011;8791;50.876;4.342;2023-03-01T10:32:52;15.07;;;9.30;;
17347;SDS011;8791;50.876;4.342;2023-03-01T10:35:22;11.27;;;8.43;;
17347;SDS011;8791;50.876;4.342;2023-03-01T10:37:56;17.60;;;8.80;;
17347;SDS011;8791;50.876;4.342;2023-03-01T10:40:24;18.27;;;9.27;;
17347;SDS011;8791;50.876;4.342;2023-03-01T10:42:51;14.40;;;9.50;;
17347;SDS011;8791;50.876;4.342;2023-03-01T10:45:27;11.87;;;8.43;;
17347;SDS011;8791;50.876;4.342;2023-03-01T10:48:05;10.73;;;8.53;;
17347;SDS011;8791;50.876;4.342;2023-03-01T10:50:38;18.70;;;9.43;;
17347;SDS011;8791;50.876;4.342;2023-03-01T10:53:08;13.77;;;8.80;;
17347;SDS011;8791;50.876;4.342;2023-03-01T10:55:55;15.10;;;8.30;;
17347;SDS011;8791;50.876;4.342;2023-03-01T10:58:24;14.53;;;8.27;;
17347;SDS011;8791;50.876;4.342;2023-03-01T11:00:51;10.27;;;7.90;;
17347;SDS011;8791;50.876;4.342;2023-03-01T11:03:21;11.90;;;7.50;;
17347;SDS011;8791;50.876;4.342;2023-03-01T11:05:55;15.07;;;8.90;;
17347;SDS011;8791;50.876;4.342;2023-03-01T11:08:31;12.27;;;8.33;;
17347;SDS011;8791;50.876;4.342;2023-03-01T11:11:04;12.73;;;8.03;;
17347;SDS011;8791;50.876;4.342;2023-03-01T11:13:38;13.63;;;9.03;;
17347;SDS011;8791;50.876;4.342;2023-03-01T11:16:16;17.63;;;8.03;;
17347;SDS011;8791;50.876;4.342;2023-03-01T11:19:03;14.63;;;8.07;;
17347;SDS011;8791;50.876;4.342;2023-03-01T11:21:50;10.10;;;7.50;;
17347;SDS011;8791;50.876;4.342;2023-03-01T11:24:22;8.93;;;7.63;;
17347;SDS011;8791;50.876;4.342;2023-03-01T11:26:54;9.87;;;8.00;;
17347;SDS011;8791;50.876;4.342;2023-03-01T11:29:33;9.37;;;7.67;;
17347;SDS011;8791;50.876;4.342;2023-03-01T11:32:06;10.67;;;7.80;;
17347;SDS011;8791;50.876;4.342;2023-03-01T11:34:39;12.53;;;7.90;;
17347;SDS011;8791;50.876;4.342;2023-03-01T11:37:13;16.13;;;8.33;;
17347;SDS011;8791;50.876;4.342;2023-03-01T11:39:51;13.70;;;8.70;;
17347;SDS011;8791;50.876;4.342;2023-03-01T11:42:25;15.43;;;8.63;;
17347;SDS011;8791;50.876;4.342;2023-03-01T11:45:02;11.53;;;8.10;;
17347;SDS011;8791;50.876;4.342;2023-03-01T11:47:39;16.37;;;8.30;;
17347;SDS011;8791;50.876;4.342;2023-03-01T11:50:19;14.70;;;8.20;;
17347;SDS011;8791;50.876;4.342;2023-03-01T11:53:01;10.07;;;7.90;;
17347;SDS011;8791;50.876;4.342;2023-03-01T11:55:46;10.00;;;7.80;;
17347;SDS011;8791;50.876;4.342;2023-03-01T11:58:27;15.37;;;7.90;;
17347;SDS011;8791;50.876;4.342;2023-03-01T12:01:13;17.50;;;8.27;;
17347;SDS011;8791;50.876;4.342;2023-03-01T12:04:01;9.97;;;7.80;;
17347;SDS011;8791;50.876;4.342;2023-03-01T12:06:46;11.77;;;7.90;;
17347;SDS011;8791;50.876;4.342;2023-03-01T12:09:33;10.47;;;8.23;;
17347;SDS011;8791;50.876;4.342;2023-03-01T12:12:18;13.50;;;7.50;;
17347;SDS011;8791;50.876;4.342;2023-03-01T12:14:55;15.53;;;7.70;;
17347;SDS011;8791;50.876;4.342;2023-03-01T12:17:40;10.77;;;7.93;;
17347;SDS011;8791;50.876;4.342;2023-03-01T12:20:21;10.27;;;7.83;;
17347;SDS011;8791;50.876;4.342;2023-03-01T12:23:07;8.63;;;7.73;;
17347;SDS011;8791;50.876;4.342;2023-03-01T12:25:50;11.10;;;7.80;;
17347;SDS011;8791;50.876;4.342;2023-03-01T12:28:31;12.73;;;7.70;;
17347;SDS011;8791;50.876;4.342;2023-03-01T12:31:14;10.70;;;7.03;;
17347;SDS011;8791;50.876;4.342;2023-03-01T12:33:54;15.80;;;8.03;;
17347;SDS011;8791;50.876;4.342;2023-03-01T12:36:31;11.63;;;8.60;;
17347;SDS011;8791;50.876;4.342;2023-03-01T12:39:11;12.30;;;7.37;;
17347;SDS011;8791;50.876;4.342;2023-03-01T12:41:53;13.30;;;7.67;;
17347;SDS011;8791;50.876;4.342;2023-03-01T12:44:35;9.33;;;6.93;;
17347;SDS011;8791;50.876;4.342;2023-03-01T12:47:17;9.33;;;7.40;;
17347;SDS011;8791;50.876;4.342;2023-03-01T12:49:49;10.30;;;6.83;;
17347;SDS011;8791;50.876;4.342;2023-03-01T12:52:22;10.47;;;7.07;;
17347;SDS011;8791;50.876;4.342;2023-03-01T12:54:55;10.50;;;7.10;;
17347;SDS011;8791;50.876;4.342;2023-03-01T12:57:26;9.07;;;7.67;;
17347;SDS011;8791;50.876;4.342;2023-03-01T13:00:05;11.40;;;7.43;;
17347;SDS011;8791;50.876;4.342;2023-03-01T13:02:45;12.93;;;7.10;;
17347;SDS011;8791;50.876;4.342;2023-03-01T13:05:19;11.37;;;7.00;;
17347;SDS011;8791;50.876;4.342;2023-03-01T13:07:55;9.07;;;7.43;;
17347;SDS011;8791;50.876;4.342;2023-03-01T13:10:28;9.60;;;7.53;;
17347;SDS011;8791;50.876;4.342;2023-03-01T13:13:10;17.80;;;8.37;;
17347;SDS011;8791;50.876;4.342;2023-03-01T13:15:39;10.07;;;7.37;;
17347;SDS011;8791;50.876;4.342;2023-03-01T13:18:27;11.40;;;7.00;;
17347;SDS011;8791;50.876;4.342;2023-03-01T13:21:02;15.27;;;7.40;;
17347;SDS011;8791;50.876;4.342;2023-03-01T13:23:37;10.77;;;8.03;;
17347;SDS011;8791;50.876;4.342;2023-03-01T13:26:07;9.77;;;7.73;;
17347;SDS011;8791;50.876;4.342;2023-03-01T13:34:43;10.07;;;7.20;;
17347;SDS011;8791;50.876;4.342;2023-03-01T13:37:22;12.03;;;8.07;;
17347;SDS011;8791;50.876;4.342;2023-03-01T13:39:57;16.17;;;7.80;;
17347;SDS011;8791;50.876;4.342;2023-03-01T13:42:31;11.27;;;8.00;;
17347;SDS011;8791;50.876;4.342;2023-03-01T13:45:12;8.83;;;7.50;;
17347;SDS011;8791;50.876;4.342;2023-03-01T13:47:46;10.10;;;7.47;;
17347;SDS011;8791;50.876;4.342;2023-03-01T13:50:20;9.67;;;6.67;;
17347;SDS011;8791;50.876;4.342;2023-03-01T13:52:50;12.23;;;7.87;;
17347;SDS011;8791;50.876;4.342;2023-03-01T13:55:23;9.73;;;6.40;;
17347;SDS011;8791;50.876;4.342;2023-03-01T13:57:53;11.37;;;7.07;;
17347;SDS011;8791;50.876;4.342;2023-03-01T14:00:28;12.00;;;7.70;;
17347;SDS011;8791;50.876;4.342;2023-03-01T14:03:03;9.80;;;7.33;;
17347;SDS011;8791;50.876;4.342;2023-03-01T14:05:34;10.40;;;7.43;;
17347;SDS011;8791;50.876;4.342;2023-03-01T14:08:01;8.53;;;6.97;;
17347;SDS011;8791;50.876;4.342;2023-03-01T14:10:31;9.23;;;7.63;;
17347;SDS011;8791;50.876;4.342;2023-03-01T14:13:05;14.00;;;7.33;;
17347;SDS011;8791;50.876;4.342;2023-03-01T14:15:49;11.23;;;7.80;;
17347;SDS011;8791;50.876;4.342;2023-03-01T14:18:29;10.90;;;7.73;;
17347;SDS011;8791;50.876;4.342;2023-03-01T14:21:07;7.90;;;6.70;;
17347;SDS011;8791;50.876;4.342;2023-03-01T14:23:34;8.90;;;7.03;;
17347;SDS011;8791;50.876;4.342;2023-03-01T14:26:07;9.67;;;8.00;;
17347;SDS011;8791;50.876;4.342;2023-03-01T14:28:37;13.17;;;8.50;;
17347;SDS011;8791;50.876;4.342;2023-03-01T14:34:00;9.27;;;7.77;;
17347;SDS011;8791;50.876;4.342;2023-03-01T14:36:28;10.23;;;7.23;;
17347;SDS011;8791;50.876;4.342;2023-03-01T14:38:57;8.90;;;7.47;;
17347;SDS011;8791;50.876;4.342;2023-03-01T14:41:31;14.37;;;8.20;;
17347;SDS011;8791;50.876;4.342;2023-03-01T14:44:04;11.10;;;7.73;;
17347;SDS011;8791;50.876;4.342;2023-03-01T14:46:36;10.67;;;7.93;;
17347;SDS011;8791;50.876;4.342;2023-03-01T14:49:04;11.93;;;8.53;;
17347;SDS011;8791;50.876;4.342;2023-03-01T14:51:36;12.50;;;9.03;;
17347;SDS011;8791;50.876;4.342;2023-03-01T14:54:10;17.47;;;9.03;;
17347;SDS011;8791;50.876;4.342;2023-03-01T14:56:47;9.97;;;7.87;;
17347;SDS011;8791;50.876;4.342;2023-03-01T14:59:14;15.50;;;8.27;;
17347;SDS011;8791;50.876;4.342;2023-03-01T15:01:42;12.43;;;7.47;;
17347;SDS011;8791;50.876;4.342;2023-03-01T15:04:11;11.17;;;8.20;;
17347;SDS011;8791;50.876;4.342;2023-03-01T15:06:39;10.53;;;7.43;;
17347;SDS011;8791;50.876;4.342;2023-03-01T15:09:11;15.87;;;8.43;;
17347;SDS011;8791;50.876;4.342;2023-03-01T15:11:41;15.17;;;8.03;;
17347;SDS011;8791;50.876;4.342;2023-03-01T15:17:15;10.40;;;7.47;;
17347;SDS011;8791;50.876;4.342;2023-03-01T15:19:52;10.20;;;6.90;;
17347;SDS011;8791;50.876;4.342;2023-03-01T15:22:19;13.83;;;7.40;;
17347;SDS011;8791;50.876;4.342;2023-03-01T15:24:48;11.50;;;7.80;;
17347;SDS011;8791;50.876;4.342;2023-03-01T15:27:15;13.53;;;8.13;;